Time;durP1;ratioP1;P1;durP2;ratioP2;P2;SDS_P1;SDS_P2;PMS_P1;PMS_P2;Temp;Humidity;BMP_temperature;BMP_pressure;BME280_temperature;BME280_humidity;BME280_pressure;Samples;Min_cycle;Max_cycle;Signal;HPM_P1;HPM_P2
2021/12/04 00:01:10;;;;;;;;;4.00;4.00;;;;;9.54;92.00;99397.53;5099919;27;45270;-79
2021/12/04 00:03:36;;;;;;;;;3.00;3.00;;;;;9.69;92.18;99405.34;5101194;27;45463;-79
2021/12/04 00:06:07;;;;;;;;;6.33;5.00;;;;;9.71;92.39;99390.88;5099742;27;48481;-79
2021/12/04 00:08:35;;;;;;;;;3.00;3.00;;;;;9.76;92.74;99381.47;5101098;27;45230;-79
2021/12/04 00:11:01;;;;;;;;;5.33;5.33;;;;;9.75;93.18;99372.69;5101315;27;45288;-78
2021/12/04 00:13:26;;;;;;;;;3.00;3.00;;;;;9.90;93.51;99369.03;5100771;27;45352;-77
2021/12/04 00:15:52;;;;;;;;;3.33;3.33;;;;;9.93;93.92;99355.34;5099423;27;47112;-77
2021/12/04 00:18:17;;;;;;;;;2.67;2.67;;;;;9.99;93.31;99354.53;5100969;27;45338;-77
2021/12/04 00:20:42;;;;;;;;;3.00;3.00;;;;;10.07;92.81;99358.81;5134259;27;45307;-77
2021/12/04 00:23:08;;;;;;;;;2.00;1.33;;;;;10.11;92.97;99346.78;5100958;27;45516;-79
2021/12/04 00:25:33;;;;;;;;;3.67;3.00;;;;;10.11;93.08;99333.50;5101048;27;45510;-76
2021/12/04 00:27:59;;;;;;;;;2.67;2.00;;;;;10.25;92.96;99346.75;5099505;27;46270;-76
2021/12/04 00:30:26;;;;;;;;;2.00;1.33;;;;;10.30;92.81;99331.03;5100995;27;45225;-76
2021/12/04 00:33:02;;;;;;;;;2.00;2.00;;;;;10.28;93.01;99322.44;5100810;27;45405;-75
2021/12/04 00:49:12;;;;;;;;;1.00;1.00;;;;;10.67;93.28;99317.28;5078781;28;45264;-80
2021/12/04 00:51:42;;;;;;;;;0.33;0.33;;;;;10.71;93.24;99310.50;5078750;28;45308;-79
2021/12/04 00:54:10;;;;;;;;;1.00;1.00;;;;;10.72;93.40;99301.53;5078784;28;46393;-78
2021/12/04 00:56:37;;;;;;;;;1.00;1.00;;;;;10.73;93.54;99298.66;5080022;27;46021;-78
2021/12/04 00:59:02;;;;;;;;;0.00;0.00;;;;;10.83;93.56;99306.16;5079768;28;45290;-78
2021/12/04 01:01:28;;;;;;;;;1.00;1.00;;;;;10.89;93.61;99306.38;5078738;28;45228;-80
2021/12/04 01:03:53;;;;;;;;;1.00;1.00;;;;;10.88;93.56;99296.75;5079853;27;45579;-80
2021/12/04 01:06:19;;;;;;;;;1.00;0.67;;;;;10.99;93.57;99310.19;5079940;27;45525;-77
2021/12/04 01:08:44;;;;;;;;;1.00;1.00;;;;;11.03;93.17;99307.94;5095651;27;45312;-77
2021/12/04 01:11:09;;;;;;;;;1.00;1.00;;;;;11.04;93.40;99300.78;5078617;28;45373;-77
2021/12/04 01:13:35;;;;;;;;;3.67;1.00;;;;;11.04;93.41;99292.81;5078326;28;46018;-75
2021/12/04 01:16:00;;;;;;;;;2.00;2.00;;;;;11.11;93.43;99293.56;5079770;28;46392;-76
2021/12/04 01:18:26;;;;;;;;;1.00;1.00;;;;;11.20;93.58;99300.25;5079846;27;45639;-76
2021/12/04 01:20:52;;;;;;;;;2.00;1.00;;;;;11.19;93.46;99298.63;5080030;27;45287;-76
2021/12/04 01:23:17;;;;;;;;;1.00;1.00;;;;;11.17;93.07;99297.22;5079687;27;45485;-77
2021/12/04 01:25:44;;;;;;;;;1.67;1.00;;;;;11.24;93.19;99298.00;5078275;28;47257;-77
2021/12/04 01:28:09;;;;;;;;;0.33;0.33;;;;;11.27;93.33;99300.22;5079591;27;45299;-76
2021/12/04 01:30:35;;;;;;;;;0.00;0.00;;;;;11.29;93.43;99298.19;5079886;27;45227;-77
2021/12/04 01:33:01;;;;;;;;;3.00;1.00;;;;;11.35;93.13;99309.78;5079624;27;45767;-77
2021/12/04 01:35:26;;;;;;;;;0.00;0.00;;;;;11.37;93.09;99307.72;5079511;28;45577;-78
2021/12/04 01:37:52;;;;;;;;;0.67;0.67;;;;;11.36;93.50;99308.75;5079456;27;45360;-78
2021/12/04 01:40:19;;;;;;;;;1.00;1.00;;;;;11.40;93.01;99306.50;5079696;27;45331;-77
2021/12/04 01:42:45;;;;;;;;;0.00;0.00;;;;;11.44;93.42;99316.47;5119963;27;45655;-76
2021/12/04 01:45:11;;;;;;;;;0.33;0.33;;;;;11.36;93.54;99298.13;5120495;27;45366;-75
2021/12/04 01:47:36;;;;;;;;;0.00;0.00;;;;;11.44;93.24;99315.66;5118994;27;45332;-77
2021/12/04 01:50:04;;;;;;;;;0.00;0.00;;;;;11.43;93.17;99306.88;5119461;27;45314;-75
2021/12/04 01:52:29;;;;;;;;;0.67;0.67;;;;;11.48;93.17;99312.38;5119198;27;46480;-75
2021/12/04 01:54:55;;;;;;;;;0.00;0.00;;;;;11.51;93.56;99310.28;5120362;27;46097;-76
2021/12/04 01:57:22;;;;;;;;;0.00;0.00;;;;;11.51;93.60;99304.97;5120336;27;45231;-76
2021/12/04 01:59:48;;;;;;;;;0.00;0.00;;;;;11.55;93.29;99309.66;5119253;27;45304;-76
2021/12/04 02:02:14;;;;;;;;;0.00;0.00;;;;;11.49;93.05;99306.00;5122517;27;46058;-76
2021/12/04 02:04:39;;;;;;;;;0.00;0.00;;;;;11.57;93.26;99320.91;5123804;27;45344;-79
2021/12/04 02:07:05;;;;;;;;;0.00;0.00;;;;;11.59;93.26;99313.50;5123912;27;45373;-79
2021/12/04 02:09:32;;;;;;;;;0.33;0.00;;;;;11.63;93.06;99319.22;5122623;27;45331;-80
2021/12/04 02:11:58;;;;;;;;;1.33;0.00;;;;;11.59;93.48;99304.72;5123682;27;45364;-80
2021/12/04 02:14:24;;;;;;;;;0.00;0.00;;;;;11.64;93.18;99312.84;5121923;27;47438;-80
2021/12/04 02:16:50;;;;;;;;;0.00;0.00;;;;;11.59;93.14;99302.06;5123640;27;45263;-77
2021/12/04 02:19:16;;;;;;;;;0.00;0.00;;;;;11.70;93.21;99306.66;5123732;27;45304;-80
2021/12/04 02:21:41;;;;;;;;;0.00;0.00;;;;;11.69;93.05;99307.72;5123629;27;45689;-76
2021/12/04 02:24:07;;;;;;;;;0.00;0.00;;;;;11.67;92.99;99303.66;5122195;27;47446;-77
2021/12/04 02:26:32;;;;;;;;;0.00;0.00;;;;;11.76;92.79;99314.84;5123609;27;45344;-76
2021/12/04 02:28:58;;;;;;;;;0.00;0.00;;;;;11.73;92.89;99311.56;5123544;27;45217;-76
2021/12/04 02:31:24;;;;;;;;;0.00;0.00;;;;;11.71;92.96;99302.16;5122211;27;45840;-76
2021/12/04 02:33:50;;;;;;;;;0.33;0.00;;;;;11.74;92.77;99307.84;5121941;27;47591;-76
2021/12/04 02:36:17;;;;;;;;;0.00;0.00;;;;;11.78;92.69;99310.09;5123226;27;45304;-76
2021/12/04 02:38:46;;;;;;;;;0.00;0.00;;;;;11.80;92.84;99308.03;5123527;27;45300;-77
2021/12/04 02:41:12;;;;;;;;;0.00;0.00;;;;;11.80;92.61;99310.69;5115518;27;45220;-77
2021/12/04 02:43:37;;;;;;;;;0.00;0.00;;;;;11.86;92.78;99315.94;5135253;27;47530;-77
2021/12/04 02:46:03;;;;;;;;;0.00;0.00;;;;;11.86;92.64;99307.97;5101122;27;45982;-77
2021/12/04 02:48:28;;;;;;;;;0.67;0.00;;;;;11.87;92.80;99311.44;5102495;27;45319;-77
2021/12/04 02:50:54;;;;;;;;;0.00;0.00;;;;;11.82;92.31;99305.97;5102666;27;45383;-75
2021/12/04 02:53:19;;;;;;;;;0.00;0.00;;;;;11.86;92.55;99307.16;5102473;27;45457;-75
2021/12/04 02:55:45;;;;;;;;;0.00;0.00;;;;;11.84;92.34;99298.56;5102424;27;45327;-75
2021/12/04 02:58:13;;;;;;;;;0.33;0.00;;;;;11.92;92.61;99322.28;5135659;27;45458;-78
2021/12/04 03:00:42;;;;;;;;;0.00;0.00;;;;;11.89;92.16;99306.75;5102198;27;45503;-75
2021/12/04 03:03:07;;;;;;;;;0.00;0.00;;;;;11.93;92.05;99315.09;5102100;27;47453;-75
2021/12/04 03:05:33;;;;;;;;;0.00;0.00;;;;;11.97;92.19;99313.59;5102218;27;45196;-75
2021/12/04 03:07:59;;;;;;;;;0.00;0.00;;;;;11.96;92.06;99312.00;5101108;27;45273;-77
2021/12/04 03:10:26;;;;;;;;;0.00;0.00;;;;;11.97;92.13;99313.59;5102171;27;45463;-76
2021/12/04 03:12:52;;;;;;;;;0.00;0.00;;;;;11.94;92.01;99312.22;5100884;27;45496;-77
2021/12/04 03:15:20;;;;;;;;;0.00;0.00;;;;;11.97;92.03;99313.59;5102115;27;45345;-76
2021/12/04 03:17:46;;;;;;;;;0.00;0.00;;;;;11.97;91.90;99316.28;5101947;27;45228;-79
2021/12/04 03:20:11;;;;;;;;;0.00;0.00;;;;;11.96;91.96;99312.81;5102081;27;45210;-77
2021/12/04 03:22:39;;;;;;;;;0.00;0.00;;;;;12.04;91.60;99321.56;5102157;27;45316;-77
2021/12/04 03:25:04;;;;;;;;;0.00;0.00;;;;;12.03;91.40;99307.41;5102173;27;45290;-77
2021/12/04 03:27:31;;;;;;;;;0.00;0.00;;;;;12.03;91.54;99310.06;5101913;27;45302;-75
2021/12/04 03:30:00;;;;;;;;;0.00;0.00;;;;;12.05;91.78;99305.34;5102102;27;45445;-77
2021/12/04 03:43:08;;;;;;;;;0.00;0.00;;;;;12.06;91.19;99306.97;5121937;27;45918;-77
2021/12/04 03:45:37;;;;;;;;;0.00;0.00;;;;;12.07;91.26;99302.50;5120856;27;45332;-77
2021/12/04 03:48:08;;;;;;;;;0.00;0.00;;;;;12.04;90.90;99301.06;5122341;27;45503;-77
2021/12/04 03:50:35;;;;;;;;;0.00;0.00;;;;;12.10;91.19;99313.53;5120760;27;46995;-77
2021/12/04 03:53:00;;;;;;;;;0.00;0.00;;;;;12.10;90.85;99310.84;5120694;27;48593;-79
2021/12/04 03:55:26;;;;;;;;;0.00;0.00;;;;;12.08;90.96;99310.28;5122060;27;45312;-79
2021/12/04 03:57:52;;;;;;;;;0.00;0.00;;;;;12.14;90.95;99318.41;5120622;27;45279;-78
2021/12/04 04:00:19;;;;;;;;;0.00;0.00;;;;;12.12;90.87;99313.31;5120481;27;45385;-79
2021/12/04 04:02:44;;;;;;;;;0.00;0.00;;;;;12.08;91.01;99314.78;5120403;27;47417;-79
2021/12/04 04:05:10;;;;;;;;;0.00;0.00;;;;;12.08;91.00;99312.13;5120520;27;45345;-77
2021/12/04 04:07:36;;;;;;;;;0.00;0.00;;;;;12.10;91.23;99318.06;5122206;27;45273;-77
2021/12/04 04:10:02;;;;;;;;;0.00;0.00;;;;;12.02;90.93;99311.13;5121959;27;45219;-77
2021/12/04 04:12:28;;;;;;;;;0.33;0.33;;;;;12.12;90.96;99321.28;5121654;27;46489;-77
2021/12/04 04:14:53;;;;;;;;;0.00;0.00;;;;;12.14;91.10;99323.75;5121901;27;45320;-77
2021/12/04 04:17:19;;;;;;;;;0.00;0.00;;;;;12.07;90.76;99307.84;5121738;27;45374;-77
2021/12/04 04:19:44;;;;;;;;;0.00;0.00;;;;;12.11;90.79;99319.66;5121787;27;45393;-77
2021/12/04 04:22:09;;;;;;;;;0.00;0.00;;;;;12.10;90.81;99310.84;5120244;27;48188;-77
2021/12/04 04:24:35;;;;;;;;;1.00;0.00;;;;;12.10;90.97;99313.53;5121478;27;45367;-79
2021/12/04 04:27:01;;;;;;;;;0.00;0.00;;;;;12.09;90.54;99313.75;5121744;27;45328;-79
2021/12/04 04:29:26;;;;;;;;;0.00;0.00;;;;;12.13;90.15;99322.94;5121408;27;45264;-77
2021/12/04 04:31:54;;;;;;;;;0.00;0.00;;;;;12.16;90.10;99335.81;5120011;27;46955;-79
2021/12/04 04:34:27;;;;;;;;;0.00;0.00;;;;;12.08;90.34;99306.78;5120113;27;45291;-79
2021/12/04 05:14:32;;;;;;;;;0.00;0.00;;;;;12.09;90.05;99284.47;5099851;27;46001;-79
2021/12/04 05:17:03;;;;;;;;;0.00;0.00;;;;;12.07;90.06;99279.38;5098667;27;45425;-79
2021/12/04 05:20:19;;;;;;;;;0.33;0.00;;;;;12.07;89.74;99281.19;5098764;27;45244;-79
2021/12/04 05:22:15;;;;;;;;;0.00;0.00;;;;;12.00;89.79;99281.22;5092223;27;45477;-78
2021/12/04 05:24:41;;;;;;;;;0.00;0.00;;;;;12.06;89.85;99288.34;5098775;27;47323;-78
2021/12/04 05:27:08;;;;;;;;;0.00;0.00;;;;;12.01;90.04;99272.22;5100111;27;45317;-77
2021/12/04 05:29:33;;;;;;;;;0.00;0.00;;;;;12.06;89.68;99282.22;5100368;27;45263;-78
2021/12/04 05:31:59;;;;;;;;;0.00;0.00;;;;;12.07;89.78;99278.53;5100197;27;45460;-78
2021/12/04 05:34:25;;;;;;;;;0.00;0.00;;;;;12.02;89.87;99273.00;5099998;27;45580;-78
2021/12/04 05:36:51;;;;;;;;;0.33;0.00;;;;;12.08;89.74;99282.81;5102211;27;45739;-78
2021/12/04 05:39:16;;;;;;;;;0.00;0.00;;;;;12.05;89.97;99285.91;5102427;27;45205;-78
2021/12/04 05:41:42;;;;;;;;;0.00;0.00;;;;;12.03;89.84;99275.47;5136555;27;46243;-78
2021/12/04 05:44:09;;;;;;;;;0.00;0.00;;;;;12.02;89.48;99281.00;5101958;27;48301;-78
2021/12/04 05:46:40;;;;;;;;;0.00;0.00;;;;;12.03;89.33;99285.31;5103591;27;45376;-78
2021/12/04 05:49:20;;;;;;;;;0.00;0.00;;;;;12.04;89.71;99300.25;5103712;27;45220;-78
2021/12/04 05:56:59;;;;;;;;;0.33;0.33;;;;;12.01;89.29;99296.19;5103088;27;45334;-80
2021/12/04 05:59:25;;;;;;;;;3.00;2.00;;;;;11.99;89.48;99290.25;5101874;27;45264;-79
2021/12/04 06:01:51;;;;;;;;;0.00;0.00;;;;;11.99;89.31;99290.25;5101877;27;46803;-80
2021/12/04 06:04:16;;;;;;;;;1.00;0.00;;;;;11.93;89.26;99289.28;5101678;27;47256;-80
2021/12/04 06:06:43;;;;;;;;;0.00;0.00;;;;;11.94;89.25;99290.91;5101990;27;45572;-79
2021/12/04 06:09:09;;;;;;;;;0.33;0.33;;;;;11.97;89.21;99303.78;5102049;27;45421;-78
2021/12/04 06:11:35;;;;;;;;;0.00;0.00;;;;;11.91;89.33;99293.22;5103099;27;45324;-79
2021/12/04 06:14:00;;;;;;;;;0.00;0.00;;;;;11.96;89.26;99306.66;5101508;27;47619;-77
2021/12/04 06:16:26;;;;;;;;;0.00;0.00;;;;;11.94;88.77;99296.22;5102056;27;45323;-79
2021/12/04 06:18:53;;;;;;;;;0.00;0.00;;;;;11.84;88.66;99286.09;5103071;27;45318;-78
2021/12/04 06:24:05;;;;;;;;;0.00;0.00;;;;;11.96;88.71;99296.00;5102760;27;45311;-77
2021/12/04 06:26:35;;;;;;;;;0.00;0.00;;;;;11.94;88.79;99296.22;5101517;27;45339;-78
2021/12/04 06:29:01;;;;;;;;;0.00;0.00;;;;;11.93;88.55;99296.44;5102838;27;45265;-77
2021/12/04 06:31:27;;;;;;;;;0.00;0.00;;;;;11.96;88.67;99302.16;5101853;27;45550;-79
2021/12/04 06:33:53;;;;;;;;;0.00;0.00;;;;;11.93;88.67;99291.94;5101068;27;47100;-78
2021/12/04 06:36:21;;;;;;;;;0.33;0.00;;;;;11.93;88.66;99289.28;5101398;27;46017;-78
2021/12/04 06:38:47;;;;;;;;;0.00;0.00;;;;;11.95;88.79;99289.91;5101359;27;45341;-78
2021/12/04 06:41:12;;;;;;;;;0.00;0.00;;;;;11.96;88.90;99285.38;5108564;27;46184;-78
2021/12/04 06:43:41;;;;;;;;;0.00;0.00;;;;;11.96;89.09;99280.88;5121409;27;46867;-79
2021/12/04 06:46:08;;;;;;;;;0.00;0.00;;;;;11.96;88.76;99286.19;5121210;27;45323;-77
2021/12/04 06:48:41;;;;;;;;;0.00;0.00;;;;;11.96;88.77;99285.38;5122548;27;45331;-77
2021/12/04 06:53:44;;;;;;;;;0.00;0.00;;;;;11.95;88.80;99263.28;5122993;27;46009;-77
2021/12/04 06:56:12;;;;;;;;;0.33;0.33;;;;;11.98;88.88;99264.66;5122921;27;45303;-77
2021/12/04 06:58:38;;;;;;;;;1.33;1.33;;;;;11.99;88.76;99263.63;5123047;27;45263;-79
2021/12/04 07:01:06;;;;;;;;;5.33;5.33;;;;;12.00;88.79;99270.56;5121259;27;45338;-77
2021/12/04 07:03:32;;;;;;;;;3.33;3.33;;;;;12.01;88.72;99266.91;5121386;27;47035;-77
2021/12/04 07:05:58;;;;;;;;;6.00;4.33;;;;;12.01;88.48;99261.56;5121546;27;46022;-76
2021/12/04 07:08:23;;;;;;;;;9.00;9.00;;;;;12.00;88.59;99262.59;5121579;27;45835;-77
2021/12/04 07:10:48;;;;;;;;;12.33;9.67;;;;;11.98;88.67;99262.00;5122804;27;45439;-77
2021/12/04 07:13:14;;;;;;;;;4.33;4.33;;;;;11.98;88.77;99257.47;5121238;27;47099;-77
2021/12/04 07:15:41;;;;;;;;;2.00;2.00;;;;;11.97;89.02;99255.84;5121377;27;46050;-77
2021/12/04 07:18:07;;;;;;;;;1.67;1.67;;;;;11.98;88.90;99259.34;5122707;27;45301;-77
2021/12/04 07:20:32;;;;;;;;;2.00;2.00;;;;;11.99;88.97;99263.63;5121139;27;46272;-78
2021/12/04 07:22:59;;;;;;;;;3.00;3.00;;;;;12.00;89.25;99268.72;5121237;27;47239;-78
2021/12/04 07:25:25;;;;;;;;;3.33;3.00;;;;;12.01;89.32;99269.56;5121073;27;45379;-77
2021/12/04 07:27:51;;;;;;;;;3.67;3.33;;;;;12.00;89.32;99263.41;5122435;27;45339;-79
2021/12/04 07:30:18;;;;;;;;;6.00;6.00;;;;;11.95;89.50;99241.97;5122557;27;45317;-78
2021/12/04 07:32:44;;;;;;;;;3.33;3.33;;;;;11.98;89.50;99244.16;5122245;27;46259;-78
2021/12/04 07:35:10;;;;;;;;;1.33;1.33;;;;;11.92;89.33;99239.75;5105451;27;45235;-79
2021/12/04 07:37:35;;;;;;;;;2.33;2.33;;;;;11.94;89.42;99240.31;5117679;27;45294;-78
2021/12/04 07:40:01;;;;;;;;;0.33;0.33;;;;;11.90;89.42;99228.50;5101898;27;45253;-77
2021/12/04 07:42:26;;;;;;;;;3.00;3.00;;;;;11.97;89.96;99239.88;5118965;27;45649;-78
2021/12/04 07:44:51;;;;;;;;;2.67;2.00;;;;;12.02;89.35;99251.72;5120896;27;45243;-77
2021/12/04 07:47:17;;;;;;;;;4.67;4.67;;;;;11.94;89.99;99232.34;5120754;27;45193;-78
2021/12/04 07:49:43;;;;;;;;;5.33;4.33;;;;;11.96;89.92;99237.44;5120806;27;46326;-78
2021/12/04 07:52:10;;;;;;;;;4.33;4.33;;;;;11.97;90.23;99233.72;5120706;27;48296;-78
2021/12/04 07:54:36;;;;;;;;;4.67;4.67;;;;;11.92;90.40;99231.75;5122000;27;45339;-78
2021/12/04 07:57:03;;;;;;;;;4.67;4.67;;;;;11.93;90.41;99229.88;5121879;27;45299;-78
2021/12/04 07:59:29;;;;;;;;;6.67;5.00;;;;;11.90;90.49;99223.16;5121393;27;45395;-78
2021/12/04 08:01:55;;;;;;;;;8.67;7.67;;;;;11.92;90.61;99222.94;5120400;27;47377;-77
2021/12/04 08:04:21;;;;;;;;;6.67;6.67;;;;;11.96;90.91;99232.94;5120527;27;45228;-78
2021/12/04 08:06:46;;;;;;;;;6.33;6.00;;;;;11.96;90.20;99226.78;5120585;27;45289;-76
2021/12/04 08:09:11;;;;;;;;;6.33;6.33;;;;;11.92;90.77;99225.63;5120644;27;46075;-77
2021/12/04 08:11:37;;;;;;;;;4.33;3.67;;;;;11.97;90.97;99239.06;5121944;27;45372;-77
2021/12/04 08:14:02;;;;;;;;;2.67;2.67;;;;;11.91;91.28;99232.78;5121640;27;45313;-76
2021/12/04 08:16:28;;;;;;;;;1.67;1.67;;;;;11.96;91.67;99237.44;5122096;27;45600;-77
2021/12/04 08:18:54;;;;;;;;;2.67;2.67;;;;;11.99;91.29;99240.50;5120294;27;46132;-77
2021/12/04 08:21:21;;;;;;;;;2.33;2.33;;;;;12.02;91.06;99241.88;5113957;27;46382;-76
2021/12/04 08:23:46;;;;;;;;;4.33;3.67;;;;;12.04;91.31;99244.34;5099059;27;46124;-77
2021/12/04 08:26:12;;;;;;;;;2.00;2.00;;;;;12.03;91.03;99242.72;5096605;27;45327;-77
2021/12/04 08:28:38;;;;;;;;;0.67;0.67;;;;;12.03;91.38;99242.72;5100441;27;45495;-77
2021/12/04 08:31:03;;;;;;;;;0.00;0.00;;;;;12.01;91.45;99248.25;5099333;27;47489;-77
2021/12/04 08:33:29;;;;;;;;;0.33;0.33;;;;;11.99;91.41;99251.13;5100651;27;45357;-78
2021/12/04 08:35:55;;;;;;;;;1.00;1.00;;;;;11.98;91.57;99246.81;5099424;27;45272;-79
2021/12/04 08:38:20;;;;;;;;;0.00;0.00;;;;;11.99;91.81;99260.97;5099290;27;46383;-78
2021/12/04 08:40:47;;;;;;;;;0.00;0.00;;;;;11.97;92.61;99285.16;5102742;27;48042;-77
2021/12/04 08:43:13;;;;;;;;;0.33;0.33;;;;;11.91;93.08;99272.72;5119231;27;45390;-77
2021/12/04 08:45:40;;;;;;;;;0.00;0.00;;;;;11.73;94.51;99265.50;5119912;27;45317;-79
2021/12/04 08:48:08;;;;;;;;;0.33;0.00;;;;;11.61;95.64;99274.19;5119961;27;45271;-78
2021/12/04 08:50:35;;;;;;;;;0.00;0.00;;;;;11.40;96.51;99261.28;5119791;27;47176;-77
2021/12/04 08:53:02;;;;;;;;;0.00;0.00;;;;;11.26;100.00;99260.53;5119942;27;45238;-76
2021/12/04 08:55:29;;;;;;;;;0.33;0.33;;;;;11.18;100.00;99270.41;5120098;27;45292;-79
2021/12/04 08:57:55;;;;;;;;;0.00;0.00;;;;;11.07;100.00;99277.22;5119653;27;46197;-77
2021/12/04 09:00:33;;;;;;;;;0.00;0.00;;;;;10.88;100.00;99278.97;5119526;27;46837;-78
2021/12/04 09:02:58;;;;;;;;;0.00;0.00;;;;;11.05;100.00;99283.78;5119572;27;45355;-77
2021/12/04 09:05:25;;;;;;;;;0.00;0.00;;;;;11.07;100.00;99285.19;5120010;27;45474;-78
2021/12/04 09:07:51;;;;;;;;;1.00;1.00;;;;;11.05;100.00;99283.78;5119662;27;45482;-78
2021/12/04 09:10:18;;;;;;;;;0.00;0.00;;;;;11.07;100.00;99290.50;5118565;27;47302;-78
2021/12/04 09:12:44;;;;;;;;;0.00;0.00;;;;;11.07;100.00;99309.13;5119267;27;45695;-78
2021/12/04 09:15:14;;;;;;;;;0.00;0.00;;;;;10.98;100.00;99292.59;5119779;27;45361;-77
2021/12/04 09:17:39;;;;;;;;;0.00;0.00;;;;;11.01;100.00;99299.34;5119298;27;45791;-78
2021/12/04 09:20:07;;;;;;;;;0.00;0.00;;;;;11.02;100.00;99308.97;5119392;27;47586;-77
2021/12/04 09:22:35;;;;;;;;;0.00;0.00;;;;;11.03;100.00;99315.91;5119490;27;45379;-78
2021/12/04 09:25:04;;;;;;;;;1.00;1.00;;;;;11.05;99.46;99315.69;5119442;27;45337;-77
2021/12/04 09:59:49;;;;;;;;;0.00;0.00;;;;;11.49;87.03;99372.53;5099427;27;45260;-78
2021/12/04 10:16:42;;;;;;;;;0.33;0.33;;;;;11.43;81.91;99418.59;5099329;27;45557;-77
2021/12/04 10:18:55;;;;;;;;;1.00;0.00;;;;;11.30;79.61;99421.31;5091661;27;45379;-77
2021/12/04 10:34:53;;;;;;;;;0.00;0.00;;;;;10.97;79.59;99410.63;5101088;27;45383;-77
2021/12/04 10:37:25;;;;;;;;;0.00;0.00;;;;;10.98;79.64;99417.56;5100697;27;45350;-78
2021/12/04 10:39:53;;;;;;;;;0.00;0.00;;;;;10.94;78.93;99423.50;5101342;27;45345;-77
2021/12/04 10:42:24;;;;;;;;;0.67;0.67;;;;;10.93;79.46;99435.16;5100696;27;46548;-77
2021/12/04 10:44:52;;;;;;;;;1.00;0.00;;;;;10.92;78.28;99438.84;5102488;27;45551;-77
2021/12/04 10:47:27;;;;;;;;;1.00;1.00;;;;;10.94;79.35;99444.75;5100385;27;45396;-77
2021/12/04 10:52:58;;;;;;;;;2.00;0.00;;;;;10.93;77.93;99454.56;5102172;27;45295;-77
2021/12/04 11:03:35;;;;;;;;;0.67;0.67;;;;;10.72;77.81;99443.16;5102033;27;45282;-74
2021/12/04 11:38:45;;;;;;;;;0.00;0.00;;;;;10.47;77.16;99467.72;5101623;27;46043;-76
2021/12/04 11:43:55;;;;;;;;;0.00;0.00;;;;;10.23;83.23;99483.22;5121908;27;45268;-76
2021/12/04 11:46:29;;;;;;;;;2.00;1.00;;;;;10.06;84.46;99492.59;5122238;27;45540;-79
2021/12/04 11:48:59;;;;;;;;;1.00;1.00;;;;;9.80;85.05;99491.50;5120713;27;48574;-78
2021/12/04 11:51:27;;;;;;;;;2.00;1.00;;;;;9.71;85.75;99507.59;5122132;27;45269;-80
2021/12/04 11:53:54;;;;;;;;;1.00;1.00;;;;;9.59;86.49;99520.63;5122191;27;45308;-78
2021/12/04 11:56:28;;;;;;;;;3.00;1.00;;;;;9.30;100.00;99522.50;5117280;27;46110;-79
2021/12/04 11:58:54;;;;;;;;;1.00;1.00;;;;;-149.00;100.00;66333.84;5121164;27;45460;-78
2021/12/04 12:01:23;;;;;;;;;0.00;0.00;;;;;-149.00;100.00;66333.84;5121618;27;45440;-78
2021/12/04 12:03:55;;;;;;;;;2.00;2.00;;;;;-149.00;100.00;66333.84;5119785;27;45252;-79
2021/12/04 12:06:33;;;;;;;;;2.00;2.00;;;;;-149.00;100.00;66333.84;5121836;27;45281;-80
2021/12/04 12:09:04;;;;;;;;;3.33;2.00;;;;;-149.00;100.00;66333.84;5120234;27;46558;-78
2021/12/04 12:11:30;;;;;;;;;0.67;0.67;;;;;-149.00;100.00;66333.84;5085653;27;45494;-78
2021/12/04 12:14:05;;;;;;;;;2.33;1.00;;;;;-149.00;100.00;66333.84;5112983;27;45783;-78
2021/12/04 12:16:37;;;;;;;;;1.00;1.00;;;;;-149.00;100.00;66333.84;5109979;27;45364;-78
2021/12/04 12:19:12;;;;;;;;;3.00;3.00;;;;;-149.00;100.00;66333.84;5101097;27;46368;-77
2021/12/04 12:21:54;;;;;;;;;0.33;0.00;;;;;-149.00;100.00;66333.84;5098693;27;45548;-77
2021/12/04 12:38:38;;;;;;;;;3.00;3.00;;;;;-149.00;100.00;66333.84;5100273;27;45298;-77
2021/12/04 12:41:22;;;;;;;;;3.00;2.00;;;;;-149.00;100.00;66333.84;5099047;27;47168;-77
2021/12/04 12:43:54;;;;;;;;;3.67;3.67;;;;;-149.00;100.00;66333.84;5098799;27;46088;-77
2021/12/04 12:46:31;;;;;;;;;4.67;4.00;;;;;-149.00;100.00;66333.84;5098748;27;45433;-77
2021/12/04 12:48:56;;;;;;;;;6.00;4.00;;;;;-149.00;100.00;66333.84;5097613;27;46387;-77
2021/12/04 12:51:28;;;;;;;;;8.00;8.00;;;;;-149.00;100.00;66333.84;5098750;27;46459;-77
2021/12/04 12:53:54;;;;;;;;;9.00;8.33;;;;;-149.00;100.00;66333.84;5098825;27;45311;-77
2021/12/04 12:56:25;;;;;;;;;6.00;3.00;;;;;-149.00;100.00;66333.84;5099154;27;45412;-77
2021/12/04 13:12:54;;;;;;;;;7.00;7.00;;;;;-149.00;100.00;66333.84;5093123;27;45482;-77
2021/12/04 13:15:37;;;;;;;;;6.00;6.00;;;;;-149.00;100.00;66333.84;5098811;27;45573;-77
2021/12/04 13:18:16;;;;;;;;;8.00;6.33;;;;;-149.00;100.00;66333.84;5098886;27;45404;-77
2021/12/04 13:20:42;;;;;;;;;5.33;4.67;;;;;-149.00;100.00;66333.84;5098924;27;46593;-77
2021/12/04 13:23:10;;;;;;;;;17.00;12.00;;;;;-149.00;100.00;66333.84;5098838;27;48226;-77
2021/12/04 13:25:36;;;;;;;;;9.33;9.33;;;;;-149.00;100.00;66333.84;5098752;27;45433;-77
2021/12/04 13:30:27;;;;;;;;;10.33;8.33;;;;;-149.00;100.00;66333.84;5100149;27;45405;-76
2021/12/04 13:32:52;;;;;;;;;7.00;7.00;;;;;-149.00;100.00;66333.84;5100019;27;45329;-77
2021/12/04 13:35:23;;;;;;;;;5.00;5.00;;;;;-149.00;100.00;66333.84;5098749;27;45391;-77
2021/12/04 13:37:51;;;;;;;;;2.00;1.00;;;;;-149.00;100.00;66333.84;5100284;27;45206;-77
2021/12/04 13:40:19;;;;;;;;;3.00;3.00;;;;;-149.00;100.00;66333.84;5098812;27;46334;-77
2021/12/04 13:42:45;;;;;;;;;6.00;6.00;;;;;-149.00;100.00;66333.84;5098178;27;46414;-78
2021/12/04 13:45:15;;;;;;;;;3.67;3.67;;;;;-149.00;100.00;66333.84;5100147;27;45264;-77
2021/12/04 13:47:43;;;;;;;;;8.33;6.33;;;;;-149.00;100.00;66333.84;5098448;27;45378;-77
2021/12/04 13:52:58;;;;;;;;;5.00;4.33;;;;;-149.00;100.00;66333.84;5099767;27;45292;-77
2021/12/04 13:55:25;;;;;;;;;6.00;5.33;;;;;-149.00;100.00;66333.84;5098521;27;45253;-77
2021/12/04 13:57:51;;;;;;;;;9.00;7.33;;;;;-149.00;100.00;66333.84;5102929;27;45311;-76
2021/12/04 14:00:18;;;;;;;;;5.33;5.33;;;;;-149.00;100.00;66333.84;5101806;27;45272;-76
2021/12/04 14:02:43;;;;;;;;;6.33;6.00;;;;;-149.00;100.00;66333.84;5101922;27;47689;-77
2021/12/04 14:05:15;;;;;;;;;6.33;5.33;;;;;-149.00;100.00;66333.84;5101924;27;45972;-77
2021/12/04 14:07:59;;;;;;;;;3.67;2.67;;;;;-149.00;100.00;66333.84;5102023;27;45329;-77
2021/12/04 14:10:29;;;;;;;;;3.67;3.00;;;;;-149.00;100.00;66333.84;5102176;27;45171;-77
2021/12/04 14:12:56;;;;;;;;;3.67;3.67;;;;;-149.00;100.00;66333.84;5101344;27;48367;-78
2021/12/04 14:15:22;;;;;;;;;4.00;3.00;;;;;-149.00;100.00;66333.84;5101444;27;45906;-77
2021/12/04 14:17:49;;;;;;;;;2.67;2.67;;;;;-149.00;100.00;66333.84;5101720;27;45337;-77
2021/12/04 14:20:21;;;;;;;;;6.00;4.67;;;;;-149.00;100.00;66333.84;5101553;27;46454;-76
2021/12/04 14:22:49;;;;;;;;;5.67;4.00;;;;;-149.00;100.00;66333.84;5102454;27;45372;-76
2021/12/04 14:25:17;;;;;;;;;7.00;5.00;;;;;-149.00;100.00;66333.84;5102828;27;45537;-77
2021/12/04 14:27:42;;;;;;;;;3.33;3.33;;;;;-149.00;100.00;66333.84;5113713;27;45346;-77
2021/12/04 14:30:13;;;;;;;;;6.67;4.67;;;;;-149.00;100.00;66333.84;5121730;27;45404;-81
2021/12/04 14:32:40;;;;;;;;;10.00;8.00;;;;;-149.00;100.00;66333.84;5106880;27;47116;-80
2021/12/04 14:35:10;;;;;;;;;5.67;5.67;;;;;-149.00;100.00;66333.84;5121793;27;45375;-77
2021/12/04 14:37:40;;;;;;;;;6.00;5.33;;;;;-149.00;100.00;66333.84;5122580;27;45552;-76
2021/12/04 14:40:10;;;;;;;;;4.00;4.00;;;;;-149.00;100.00;66333.84;5122238;27;45392;-76
2021/12/04 14:42:36;;;;;;;;;7.67;6.00;;;;;-149.00;100.00;66333.84;5120422;27;48695;-78
2021/12/04 14:45:29;;;;;;;;;5.33;2.67;;;;;-149.00;100.00;66333.84;5119761;27;45548;-77
2021/12/04 14:48:12;;;;;;;;;4.00;3.00;;;;;-149.00;100.00;66333.84;5119806;27;45522;-76
2021/12/04 14:50:42;;;;;;;;;6.67;5.00;;;;;-149.00;100.00;66333.84;5121478;27;46561;-78
2021/12/04 14:53:11;;;;;;;;;8.00;6.33;;;;;-149.00;100.00;66333.84;5120098;27;48431;-78
2021/12/04 14:55:39;;;;;;;;;14.67;12.00;;;;;-149.00;100.00;66333.84;5122911;27;45445;-77
2021/12/04 14:58:08;;;;;;;;;8.00;7.00;;;;;-149.00;100.00;66333.84;5121415;27;45309;-78
2021/12/04 15:00:37;;;;;;;;;5.67;5.00;;;;;-149.00;100.00;66333.84;5116941;27;45379;-77